ENTCENNA

Guest
Details From ENTC - Tromso Langnes
To ENNA - BANAK
Flight Number -
Tags generated
Created
Modified
Stats Distance 127 nm / 236 km
Max Altitude 7,100 ft / 2,164 m
Waypoints 3
Social Downloads 5
Likes 0
Share

Download

Looking for another format? Having issues loading an existing format? Contact us
Advertisement - Login to hide

Notes

Basic altitude profile: - Ascent Rate: 2500ft/min - Ascent Speed: 250kts - Cruise Altitude: 35000ft - Cruise Speed: 420kts - Descent Rate: 1500ft/min - Descent Speed: 250kts Options: - Use NATs: yes - Use PACOTS: yes - Use low airways: yes - Use high airways: no

Route

ENTC ATA ENNA

ID Type Via Altitude (ft/m) Position (lat/lon) Dist (leg/tot) Name
O ENTC APT - 0 / 0 69.68287 / 18.91936 - / 0 nm Tromso Langnes
ATA VOR - 7,100 / 2,164 69.97758 / 23.37182 93 / 93 nm ALTA VOR-DME
O ENNA APT - 0 / 0 70.06881 / 24.97349 33 / 127 nm BANAK

Altitude Profile

Advertisement - Login to hide

ENTC

Details ICAO ENTC (TOS)
Name Tromso Langnes
Region Norway
Timezone Europe/Oslo (UTC+2.0)
Stats Elevation 28 ft / 9 m (AMSL)
Location 69.682900° 18.918600°
Runways 1
Magnetic Variation 9.818° E

METAR

ENTC 271520Z 05015KT 9999 -RA BKN048 09/03 Q1000 NOSIG RMK WIND 2600FT 02015KT

Decode

TAF

TAF ENTC 271100Z 2712/2812 05009KT 9999 FEW030 SCT070 TEMPO 2806/2812 BKN012

Decode

Departure Runways

ID Width Length Bearing (true/mag) Surface Threshold Overrun Markings Lighting
18 148 ft / 45 m 7,520 ft / 2,292 m 193.07° / 183.25° ASPHALT 971 ft / 296 m 0 ft / 0 m PREC-APP CENTERLINE EDGE THRESHOLD MALSF
36 148 ft / 45 m 7,520 ft / 2,292 m 13.05° / 3.24° ASPHALT 0 ft / 0 m 0 ft / 0 m PREC-APP CENTERLINE EDGE THRESHOLD MALSF

ENNA

Details ICAO ENNA (LKL)
Name Banak
Region Norway
Timezone Unknown
Stats Elevation 24 ft / 7 m (AMSL)
Location 70.068800° 24.973600°
Runways 1
Magnetic Variation 13.387° E

METAR

ENNA 271520Z 35020KT 9999 BKN013 06/04 Q1002 RMK WIND 1800FT 04019KT

Decode

TAF

TAF ENNA 271100Z 2712/2812 36018KT 9999 -RA BKN007 TEMPO 2712/2724 RA BKN020 BECMG 2800/2803 BKN025 BECMG 2804/2806 18007KT

Decode

Destination Runways

ID Width Length Bearing (true/mag) Surface Threshold Overrun Markings Lighting
16 148 ft / 45 m 9,099 ft / 2,774 m 175.40° / 162.01° ASPHALT 299 ft / 91 m 0 ft / 0 m PREC-APP EDGE THRESHOLD ALSF-I
34 148 ft / 45 m 9,099 ft / 2,774 m 355.40° / 342.01° ASPHALT 302 ft / 92 m 0 ft / 0 m PREC-APP EDGE THRESHOLD ALSF-I

Approach Navaids

Runway Type Ident Frequency Range Bearing (true/mag) Slope Elevation
16 LOC-LOC BK 109.35 MHz 18 nm / 33 km 175.40° / 162.01 ° - 24 ft / 7 m (AMSL)
34 GS BA 108.30 MHz 10 nm / 19 km 355.40° / 342.01 ° 3.50° 24 ft / 7 m (AMSL)
34 LOC-ILS BA 108.30 MHz 18 nm / 33 km 355.40° / 342.01 ° - 24 ft / 7 m (AMSL)

Popular Alternatives